Time;durP1;ratioP1;P1;durP2;ratioP2;P2;SDS_P1;SDS_P2;PMS_P1;PMS_P2;Temp;Humidity;BMP_temperature;BMP_pressure;BME280_temperature;BME280_humidity;BME280_pressure;Samples;Min_cycle;Max_cycle;Signal;HPM_P1;HPM_P2
2022/03/03 00:01:06;;;;;;;83.60;38.23;;;4.60;29.10;;;;;;4955713;28;20190;-73
2022/03/03 00:03:31;;;;;;;78.50;36.80;;;4.60;29.40;;;;;;4955682;29;20242;-73
2022/03/03 00:05:57;;;;;;;71.53;36.63;;;4.60;29.00;;;;;;4955474;29;20203;-73
2022/03/03 00:08:23;;;;;;;73.80;34.77;;;4.60;29.10;;;;;;4955123;29;20199;-73
2022/03/03 00:10:48;;;;;;;82.23;33.80;;;4.50;29.00;;;;;;4955624;29;20183;-73
2022/03/03 00:13:14;;;;;;;73.53;33.80;;;4.40;28.90;;;;;;4955717;28;20183;-73
2022/03/03 00:15:39;;;;;;;71.50;33.07;;;4.60;29.10;;;;;;4955643;29;20206;-73
2022/03/03 00:18:05;;;;;;;65.33;29.80;;;4.40;28.50;;;;;;4954887;29;20199;-73
2022/03/03 00:20:31;;;;;;;66.30;33.17;;;4.20;28.80;;;;;;4955497;28;20183;-73
2022/03/03 00:22:56;;;;;;;68.90;30.70;;;4.20;28.80;;;;;;4955504;28;20187;-73
2022/03/03 00:25:23;;;;;;;67.00;34.00;;;4.20;29.20;;;;;;4954962;28;20214;-73
2022/03/03 00:27:49;;;;;;;68.18;31.52;;;4.20;29.20;;;;;;4954789;28;20205;-73
2022/03/03 00:30:15;;;;;;;66.20;31.67;;;4.20;29.20;;;;;;4954398;28;20183;-73
2022/03/03 00:32:41;;;;;;;88.40;30.80;;;4.20;28.80;;;;;;4955008;28;20274;-73
2022/03/03 00:35:11;;;;;;;59.85;29.70;;;4.20;28.80;;;;;;4954812;29;20199;-73
2022/03/03 00:37:37;;;;;;;64.28;32.60;;;4.30;28.80;;;;;;4954958;28;20649;-73
2022/03/03 00:40:04;;;;;;;58.97;29.67;;;4.50;28.40;;;;;;4954704;28;20258;-73
2022/03/03 00:42:31;;;;;;;65.93;31.55;;;4.70;28.00;;;;;;4955128;28;20676;-73
2022/03/03 00:44:57;;;;;;;63.05;31.48;;;4.80;28.20;;;;;;4953881;29;20218;-73
2022/03/03 00:47:23;;;;;;;70.97;31.70;;;4.70;28.70;;;;;;4954778;28;20182;-73
2022/03/03 00:49:48;;;;;;;71.20;32.33;;;4.80;27.80;;;;;;4954601;29;20910;-73
2022/03/03 00:52:14;;;;;;;68.20;31.20;;;4.70;28.00;;;;;;4954936;28;20288;-73
2022/03/03 00:54:40;;;;;;;65.57;30.83;;;4.70;27.90;;;;;;4954678;28;20207;-73
2022/03/03 00:57:05;;;;;;;66.77;32.40;;;4.40;29.00;;;;;;4954483;29;20179;-73
2022/03/03 00:59:31;;;;;;;73.37;32.33;;;4.30;28.90;;;;;;4954829;28;20460;-73
2022/03/03 01:01:56;;;;;;;60.53;31.07;;;4.30;28.90;;;;;;4954435;28;20227;-73
2022/03/03 01:04:22;;;;;;;72.67;33.90;;;4.40;28.90;;;;;;4953852;28;20206;-73
2022/03/03 01:06:49;;;;;;;73.73;31.23;;;4.40;28.80;;;;;;4954279;29;20183;-73
2022/03/03 01:09:14;;;;;;;81.65;34.28;;;4.20;29.30;;;;;;4954562;29;20498;-73
2022/03/03 01:11:40;;;;;;;75.93;34.17;;;4.20;29.30;;;;;;4954120;28;20326;-73
2022/03/03 01:14:06;;;;;;;80.10;31.93;;;4.40;28.90;;;;;;4954503;29;20183;-73
2022/03/03 01:16:32;;;;;;;64.97;31.33;;;4.40;28.90;;;;;;4953970;29;20183;-73
2022/03/03 01:18:57;;;;;;;83.73;33.23;;;4.10;29.90;;;;;;4954233;28;20354;-73
2022/03/03 01:21:23;;;;;;;78.60;34.03;;;4.00;29.70;;;;;;4954295;28;20423;-73
2022/03/03 01:23:48;;;;;;;68.53;32.33;;;4.30;28.90;;;;;;4954251;28;20179;-73
2022/03/03 01:26:14;;;;;;;70.27;33.17;;;4.30;30.10;;;;;;4954037;28;20323;-73
2022/03/03 01:28:40;;;;;;;72.00;33.47;;;4.10;29.60;;;;;;4953899;28;20226;-73
2022/03/03 01:31:05;;;;;;;69.67;33.23;;;4.00;29.50;;;;;;4954224;28;20183;-73
2022/03/03 01:33:31;;;;;;;71.90;32.53;;;3.90;29.40;;;;;;4953661;28;20266;-73
2022/03/03 01:35:57;;;;;;;77.23;31.77;;;4.10;30.00;;;;;;4954041;28;20207;-73
2022/03/03 01:38:23;;;;;;;76.70;32.40;;;4.10;29.60;;;;;;4953813;29;20191;-73
2022/03/03 01:40:48;;;;;;;72.37;32.80;;;4.00;29.70;;;;;;4953605;28;20683;-73
2022/03/03 01:43:14;;;;;;;73.83;34.80;;;4.20;29.40;;;;;;4952848;29;20191;-73
2022/03/03 01:45:40;;;;;;;73.73;33.80;;;3.80;30.30;;;;;;4953755;28;20210;-73
2022/03/03 01:48:05;;;;;;;76.27;35.47;;;3.90;29.70;;;;;;4953890;28;20191;-73
2022/03/03 01:50:31;;;;;;;80.97;35.93;;;3.90;30.60;;;;;;4953658;28;20191;-73
2022/03/03 01:52:57;;;;;;;77.83;33.60;;;3.90;30.30;;;;;;4953941;28;20615;-73
2022/03/03 01:55:23;;;;;;;74.57;34.50;;;4.00;29.60;;;;;;4953479;28;20287;-73
2022/03/03 01:57:50;;;;;;;92.45;34.00;;;3.90;29.90;;;;;;4953254;28;20221;-73
2022/03/03 02:00:16;;;;;;;79.03;34.53;;;3.70;30.20;;;;;;4953717;28;20199;-73
2022/03/03 02:02:42;;;;;;;75.47;33.55;;;3.80;31.60;;;;;;4954931;29;20206;-73
2022/03/03 02:05:08;;;;;;;69.13;33.83;;;3.80;30.30;;;;;;4953342;28;20671;-73
2022/03/03 02:07:35;;;;;;;73.07;34.97;;;4.20;29.30;;;;;;4953448;29;20603;-73
2022/03/03 02:10:02;;;;;;;85.80;36.03;;;4.20;28.80;;;;;;4953666;29;20558;-73
2022/03/03 02:12:28;;;;;;;73.20;33.25;;;4.00;29.90;;;;;;4952977;29;20180;-72
2022/03/03 02:14:54;;;;;;;83.63;36.22;;;3.90;30.20;;;;;;4952271;29;20199;-73
2022/03/03 02:17:20;;;;;;;79.63;35.80;;;4.20;29.10;;;;;;4952548;28;20602;-72
2022/03/03 02:19:46;;;;;;;84.20;35.80;;;3.90;29.30;;;;;;4952361;29;20306;-73
2022/03/03 02:22:12;;;;;;;78.87;35.03;;;3.90;29.90;;;;;;4953123;28;20250;-72
2022/03/03 02:24:38;;;;;;;73.70;33.90;;;3.80;30.90;;;;;;4951014;28;20222;-73
2022/03/03 02:27:05;;;;;;;76.38;34.67;;;3.70;30.70;;;;;;4952974;28;20478;-73
2022/03/03 02:29:31;;;;;;;71.53;33.80;;;3.60;30.70;;;;;;4953252;28;20187;-73
2022/03/03 02:31:57;;;;;;;77.30;34.40;;;3.60;31.10;;;;;;4953489;28;20214;-73
2022/03/03 02:34:23;;;;;;;78.87;35.53;;;3.50;31.00;;;;;;4952873;28;20230;-73
2022/03/03 02:36:49;;;;;;;66.00;32.10;;;3.40;31.50;;;;;;4951758;28;20942;-73
2022/03/03 02:39:14;;;;;;;74.10;33.00;;;3.40;30.60;;;;;;4953109;28;20213;-72
2022/03/03 02:41:40;;;;;;;71.97;33.07;;;3.60;32.20;;;;;;4953277;29;20183;-73
2022/03/03 02:44:06;;;;;;;67.10;32.17;;;3.60;31.30;;;;;;4952449;28;21002;-73
2022/03/03 02:46:32;;;;;;;75.20;33.10;;;3.70;30.70;;;;;;4953097;28;20187;-73
2022/03/03 02:48:58;;;;;;;75.90;33.70;;;3.50;30.80;;;;;;4953693;28;20188;-72
2022/03/03 02:51:24;;;;;;;67.97;31.08;;;3.50;30.80;;;;;;4953220;28;20194;-72
2022/03/03 02:53:49;;;;;;;71.13;32.93;;;3.50;30.60;;;;;;4954959;28;20241;-72
2022/03/03 02:56:15;;;;;;;76.10;32.87;;;3.50;30.60;;;;;;4956405;28;20218;-72
2022/03/03 02:58:42;;;;;;;67.53;31.50;;;3.50;30.50;;;;;;4956608;28;20199;-73
2022/03/03 03:01:09;;;;;;;70.05;31.95;;;3.40;30.80;;;;;;4956899;28;20266;-73
2022/03/03 03:03:34;;;;;;;63.13;31.33;;;3.40;30.50;;;;;;4956469;28;20207;-73
2022/03/03 03:06:00;;;;;;;62.13;30.00;;;3.40;30.50;;;;;;4955105;28;20230;-72
2022/03/03 03:08:26;;;;;;;67.70;30.45;;;3.60;30.60;;;;;;4955709;28;20685;-72
2022/03/03 03:10:52;;;;;;;67.20;30.83;;;3.40;30.50;;;;;;4956321;28;20275;-72
2022/03/03 03:13:17;;;;;;;71.43;32.67;;;3.30;30.60;;;;;;4956656;28;20640;-72
2022/03/03 03:15:44;;;;;;;60.07;30.43;;;3.50;30.50;;;;;;4956317;28;20218;-72
2022/03/03 03:18:12;;;;;;;63.67;28.83;;;3.50;30.80;;;;;;4955895;28;20195;-72
2022/03/03 03:20:39;;;;;;;79.57;30.25;;;3.70;29.60;;;;;;4956497;28;20537;-72
2022/03/03 03:23:06;;;;;;;63.00;30.67;;;3.90;29.20;;;;;;4956342;28;20179;-73
2022/03/03 03:25:32;;;;;;;68.03;31.40;;;3.90;29.40;;;;;;4955920;29;20210;-73
2022/03/03 03:27:58;;;;;;;63.13;31.50;;;4.00;29.10;;;;;;4956116;28;20183;-73
2022/03/03 03:30:24;;;;;;;63.50;31.52;;;4.10;29.10;;;;;;4956101;28;20463;-73
2022/03/03 03:32:50;;;;;;;60.73;30.87;;;3.90;29.60;;;;;;4956287;29;20258;-73
2022/03/03 03:35:15;;;;;;;58.03;29.53;;;3.60;30.60;;;;;;4956288;28;20218;-72
2022/03/03 03:37:41;;;;;;;64.90;31.27;;;3.60;30.20;;;;;;4955742;29;20187;-73
2022/03/03 03:40:08;;;;;;;73.50;30.07;;;3.60;30.00;;;;;;4955653;28;20186;-73
2022/03/03 03:42:34;;;;;;;62.28;30.15;;;3.50;30.50;;;;;;4956153;28;20190;-73
2022/03/03 03:45:00;;;;;;;70.90;30.92;;;3.20;31.10;;;;;;4955957;28;20750;-73
2022/03/03 03:47:26;;;;;;;62.37;30.40;;;3.20;31.70;;;;;;4955517;29;20197;-73
2022/03/03 03:49:52;;;;;;;72.30;31.30;;;3.30;31.70;;;;;;4955738;29;20435;-73
2022/03/03 03:52:18;;;;;;;62.43;30.00;;;3.20;31.40;;;;;;4992120;23;20230;-74
2022/03/03 03:54:43;;;;;;;62.80;29.83;;;3.20;31.60;;;;;;4973253;28;20554;-74
2022/03/03 03:57:09;;;;;;;64.67;29.73;;;3.30;31.80;;;;;;4974513;28;20183;-74
2022/03/03 03:59:35;;;;;;;63.53;29.90;;;3.20;31.40;;;;;;4989460;28;20210;-75
2022/03/03 04:02:00;;;;;;;58.57;30.97;;;3.30;30.60;;;;;;4960691;28;20700;-75
2022/03/03 04:04:26;;;;;;;64.70;29.43;;;3.60;30.00;;;;;;4954313;28;21058;-74
2022/03/03 04:06:52;;;;;;;60.50;30.57;;;3.70;29.60;;;;;;4955127;28;20183;-75
2022/03/03 04:09:17;;;;;;;62.60;30.90;;;3.70;30.00;;;;;;4955222;28;20184;-75
2022/03/03 04:11:43;;;;;;;63.30;31.07;;;3.60;30.60;;;;;;4954544;28;20199;-75
2022/03/03 04:14:08;;;;;;;69.07;30.57;;;3.50;30.40;;;;;;4955284;28;20187;-75
2022/03/03 04:16:35;;;;;;;66.37;30.70;;;3.70;30.60;;;;;;4954627;28;20218;-74
2022/03/03 04:19:00;;;;;;;67.43;31.75;;;3.30;30.70;;;;;;4954964;28;20203;-75
2022/03/03 04:21:26;;;;;;;63.93;31.73;;;3.10;31.80;;;;;;4953229;28;20210;-74
2022/03/03 04:23:52;;;;;;;68.80;31.57;;;3.10;31.80;;;;;;4953250;28;20179;-75
2022/03/03 04:26:17;;;;;;;68.10;29.67;;;3.20;31.60;;;;;;4954789;28;20182;-75
2022/03/03 04:28:43;;;;;;;60.53;30.57;;;3.30;30.80;;;;;;4955098;28;20374;-75
2022/03/03 04:31:09;;;;;;;63.20;30.60;;;3.50;30.00;;;;;;4955003;28;20214;-74
2022/03/03 04:33:34;;;;;;;59.83;30.10;;;3.50;29.90;;;;;;4953096;28;20678;-75
2022/03/03 04:36:00;;;;;;;70.10;32.07;;;3.30;30.90;;;;;;4954519;28;20187;-75
2022/03/03 04:38:26;;;;;;;59.10;30.67;;;3.20;31.20;;;;;;4952747;28;20294;-76
2022/03/03 04:40:52;;;;;;;62.73;31.00;;;3.30;31.50;;;;;;4944627;28;20735;-76
2022/03/03 04:43:18;;;;;;;71.73;30.40;;;3.50;30.40;;;;;;4952955;28;20266;-76
2022/03/03 04:45:44;;;;;;;57.93;29.83;;;3.30;30.80;;;;;;4954517;28;20458;-75
2022/03/03 04:48:10;;;;;;;69.80;31.30;;;3.30;31.40;;;;;;4954076;28;20675;-76
2022/03/03 04:50:36;;;;;;;70.32;33.38;;;3.20;31.10;;;;;;4952706;28;20639;-75
2022/03/03 04:53:02;;;;;;;69.87;33.30;;;3.30;31.10;;;;;;4954314;28;20198;-76
2022/03/03 04:55:28;;;;;;;67.20;31.60;;;3.20;30.20;;;;;;4954220;28;20670;-75
2022/03/03 04:57:54;;;;;;;76.07;33.08;;;3.40;29.90;;;;;;4954127;28;20546;-76
2022/03/03 05:00:20;;;;;;;69.90;32.10;;;3.40;30.10;;;;;;4954333;28;20262;-76
2022/03/03 05:02:46;;;;;;;67.65;31.67;;;3.30;30.30;;;;;;4953798;29;20451;-76
2022/03/03 05:05:12;;;;;;;73.90;30.70;;;3.10;30.60;;;;;;4954336;28;20188;-75
2022/03/03 05:07:37;;;;;;;71.60;30.93;;;3.20;30.50;;;;;;4953477;28;20179;-75
2022/03/03 05:10:04;;;;;;;65.17;30.13;;;3.00;31.30;;;;;;4954236;28;20198;-75
2022/03/03 05:12:30;;;;;;;66.20;30.67;;;3.10;31.10;;;;;;4951670;28;20679;-75
2022/03/03 05:14:56;;;;;;;72.57;31.57;;;2.80;31.00;;;;;;4954474;28;20202;-76
2022/03/03 05:17:22;;;;;;;66.82;31.77;;;2.50;31.50;;;;;;4953682;28;20202;-76
2022/03/03 05:19:48;;;;;;;70.60;32.50;;;2.20;32.20;;;;;;4953489;28;20674;-76
2022/03/03 05:22:14;;;;;;;74.17;31.90;;;1.80;33.50;;;;;;4951709;28;20447;-75
2022/03/03 05:24:40;;;;;;;78.87;31.70;;;1.80;33.80;;;;;;4953561;28;20431;-76
2022/03/03 05:27:06;;;;;;;85.50;34.25;;;1.90;34.00;;;;;;4949752;28;20442;-75
2022/03/03 05:29:32;;;;;;;69.30;32.73;;;2.30;33.40;;;;;;4947233;29;20659;-76
2022/03/03 05:31:58;;;;;;;69.20;33.57;;;2.30;32.60;;;;;;4953800;28;20859;-75
2022/03/03 05:34:25;;;;;;;75.75;33.25;;;2.40;32.80;;;;;;4952940;28;20595;-76
2022/03/03 05:36:52;;;;;;;68.43;32.90;;;2.40;32.50;;;;;;4953647;28;20189;-76
2022/03/03 05:39:18;;;;;;;79.72;34.63;;;2.40;32.80;;;;;;4952359;28;20211;-76
2022/03/03 05:41:45;;;;;;;64.32;32.60;;;2.30;32.60;;;;;;4953556;28;20270;-76
2022/03/03 05:44:14;;;;;;;66.57;32.45;;;2.30;33.60;;;;;;4952564;29;20266;-75
2022/03/03 05:46:42;;;;;;;64.50;33.15;;;2.30;32.60;;;;;;4953228;28;20681;-77
2022/03/03 05:49:09;;;;;;;66.63;32.45;;;2.20;33.10;;;;;;4953918;28;20197;-76
2022/03/03 05:51:35;;;;;;;68.13;32.63;;;2.20;33.40;;;;;;4953231;28;20262;-76
2022/03/03 05:54:01;;;;;;;72.53;33.75;;;2.20;33.40;;;;;;4948054;29;20612;-76
2022/03/03 05:56:31;;;;;;;73.13;34.08;;;2.70;33.60;;;;;;4953453;28;20190;-76
2022/03/03 05:59:00;;;;;;;71.60;32.35;;;2.40;32.60;;;;;;4953802;28;20227;-76
2022/03/03 06:01:26;;;;;;;70.63;33.85;;;2.30;33.10;;;;;;4953635;28;20198;-76
2022/03/03 06:03:59;;;;;;;70.33;32.33;;;2.40;33.30;;;;;;4951759;28;20639;-76
2022/03/03 06:06:31;;;;;;;75.53;33.47;;;2.20;32.80;;;;;;4953211;28;20510;-75
2022/03/03 06:09:18;;;;;;;73.60;33.30;;;2.40;33.10;;;;;;4953706;29;20542;-76
2022/03/03 06:12:19;;;;;;;67.93;31.65;;;2.40;33.00;;;;;;4953504;28;20207;-76
2022/03/03 06:14:52;;;;;;;67.90;31.52;;;2.30;33.40;;;;;;4950383;29;20188;-76
2022/03/03 06:17:21;;;;;;;79.38;31.38;;;2.70;31.90;;;;;;4951936;28;20187;-75
2022/03/03 06:19:49;;;;;;;78.35;32.47;;;2.50;32.70;;;;;;4952136;28;20207;-75
2022/03/03 06:22:15;;;;;;;69.80;32.80;;;2.50;33.00;;;;;;4951740;28;20690;-75
2022/03/03 06:24:41;;;;;;;65.77;31.10;;;2.50;32.60;;;;;;4947262;28;20239;-76
2022/03/03 06:27:08;;;;;;;80.80;33.53;;;2.40;33.00;;;;;;4953069;28;20183;-75
2022/03/03 06:29:34;;;;;;;60.45;32.13;;;2.60;33.30;;;;;;4957527;28;20583;-76
2022/03/03 06:32:02;;;;;;;69.60;32.92;;;2.70;32.40;;;;;;4957332;28;20231;-75
2022/03/03 06:34:28;;;;;;;72.28;33.42;;;2.70;32.80;;;;;;4953922;28;20221;-76
2022/03/03 06:36:55;;;;;;;69.38;33.10;;;2.80;32.30;;;;;;4955660;29;20219;-75
2022/03/03 06:39:20;;;;;;;77.43;32.63;;;2.90;32.60;;;;;;4957278;28;20191;-76
2022/03/03 06:41:46;;;;;;;66.37;31.30;;;3.00;32.40;;;;;;4957076;28;20214;-76
2022/03/03 06:44:12;;;;;;;70.80;33.37;;;2.90;32.30;;;;;;4957175;28;20493;-75
2022/03/03 06:46:38;;;;;;;70.53;32.40;;;2.70;32.50;;;;;;4956047;28;20422;-75
2022/03/03 06:49:05;;;;;;;66.50;33.67;;;3.00;31.80;;;;;;4955513;28;20720;-76
2022/03/03 06:51:39;;;;;;;64.82;32.03;;;3.20;31.50;;;;;;4956337;28;20310;-76
2022/03/03 06:54:06;;;;;;;71.05;32.30;;;3.30;31.70;;;;;;4955836;28;20564;-76
2022/03/03 06:56:35;;;;;;;67.78;32.85;;;3.20;32.20;;;;;;4956275;28;20663;-75
2022/03/03 06:59:01;;;;;;;75.15;33.90;;;3.10;32.40;;;;;;4955900;28;20222;-76
2022/03/03 07:01:28;;;;;;;79.38;35.58;;;3.20;32.60;;;;;;4948470;28;20293;-76
2022/03/03 07:03:57;;;;;;;86.93;36.88;;;3.20;32.40;;;;;;4959447;28;20175;-76
2022/03/03 07:06:23;;;;;;;78.57;35.80;;;3.60;31.20;;;;;;4953718;28;20179;-76
2022/03/03 07:08:54;;;;;;;68.63;35.25;;;3.60;30.80;;;;;;4945198;28;20187;-76
2022/03/03 07:11:23;;;;;;;67.07;34.08;;;3.60;31.20;;;;;;4937466;29;20208;-76
2022/03/03 07:13:49;;;;;;;78.72;34.47;;;3.70;31.20;;;;;;4955694;29;20537;-76
2022/03/03 07:16:50;;;;;;;85.68;37.08;;;3.70;31.90;;;;;;4956478;28;20191;-77
2022/03/03 07:19:31;;;;;;;75.97;34.92;;;3.70;31.90;;;;;;4929165;29;20291;-82
2022/03/03 07:22:21;;;;;;;72.53;35.42;;;3.80;31.50;;;;;;4955704;28;20282;-83
2022/03/03 07:24:57;;;;;;;78.28;36.30;;;4.10;30.70;;;;;;4938459;29;20643;-83
2022/03/03 07:27:24;;;;;;;93.78;38.67;;;4.10;31.00;;;;;;4941209;29;20175;-78
2022/03/03 07:29:58;;;;;;;77.05;34.17;;;4.10;30.80;;;;;;4959231;29;20183;-79
2022/03/03 07:32:34;;;;;;;81.95;32.80;;;3.20;32.00;;;;;;4960006;29;20203;-79
2022/03/03 07:35:09;;;;;;;71.78;32.90;;;2.90;33.30;;;;;;4960819;29;20187;-79
2022/03/03 07:37:40;;;;;;;74.97;33.13;;;3.10;33.20;;;;;;4960125;29;20194;-79
2022/03/03 07:40:10;;;;;;;74.43;34.03;;;3.30;32.50;;;;;;4944066;29;20624;-79
2022/03/03 07:42:36;;;;;;;72.43;35.28;;;2.50;34.40;;;;;;4943842;29;20207;-79
2022/03/03 07:45:04;;;;;;;83.35;35.70;;;2.70;35.70;;;;;;4960031;29;20194;-79
2022/03/03 07:47:31;;;;;;;80.55;33.15;;;2.30;36.10;;;;;;4940333;29;20184;-79
2022/03/03 07:49:57;;;;;;;81.82;33.10;;;2.00;37.20;;;;;;4961016;29;20234;-80
2022/03/03 07:52:24;;;;;;;65.32;30.80;;;2.20;36.20;;;;;;4964836;29;20326;-79
2022/03/03 07:54:50;;;;;;;74.70;33.05;;;2.30;36.10;;;;;;4935619;29;20196;-80
2022/03/03 07:57:17;;;;;;;65.03;31.77;;;2.60;35.70;;;;;;4962997;28;20214;-80
2022/03/03 08:00:00;;;;;;;68.38;32.63;;;2.60;35.30;;;;;;4960713;28;20978;-80
2022/03/03 08:02:29;;;;;;;69.00;34.42;;;2.90;35.20;;;;;;4960611;28;20239;-80
2022/03/03 08:04:57;;;;;;;81.57;36.03;;;3.00;34.70;;;;;;4963355;28;20179;-79
2022/03/03 08:07:23;;;;;;;70.53;32.67;;;3.40;33.80;;;;;;4959946;28;20180;-78
2022/03/03 08:09:54;;;;;;;77.73;33.83;;;3.80;33.00;;;;;;4955720;29;20219;-78
2022/03/03 08:12:22;;;;;;;70.18;35.20;;;3.70;32.40;;;;;;4959520;28;20482;-81
2022/03/03 08:14:49;;;;;;;76.28;35.45;;;4.20;31.40;;;;;;4959559;28;20194;-78
2022/03/03 08:17:15;;;;;;;75.93;34.38;;;4.50;31.00;;;;;;4955936;28;20278;-79
2022/03/03 08:19:44;;;;;;;72.40;34.23;;;5.10;29.80;;;;;;4953573;28;20302;-77
2022/03/03 08:22:12;;;;;;;68.85;33.80;;;4.80;30.50;;;;;;4953684;28;20290;-76
2022/03/03 08:24:43;;;;;;;63.22;31.52;;;4.40;32.10;;;;;;4953939;28;20180;-77
2022/03/03 08:27:10;;;;;;;70.38;31.48;;;4.00;33.30;;;;;;4954222;29;20175;-78
2022/03/03 08:29:36;;;;;;;67.47;32.25;;;3.80;33.00;;;;;;4954181;29;20242;-76
2022/03/03 08:32:03;;;;;;;62.37;31.30;;;3.80;34.50;;;;;;4956872;28;20195;-77
2022/03/03 08:34:42;;;;;;;87.20;35.00;;;3.80;33.80;;;;;;4955143;28;20717;-78
2022/03/03 08:37:16;;;;;;;57.47;29.98;;;4.20;32.50;;;;;;4957454;28;20654;-81
2022/03/03 08:39:44;;;;;;;61.92;31.50;;;4.60;31.40;;;;;;4950607;28;20203;-75
2022/03/03 08:42:13;;;;;;;61.08;31.35;;;5.10;30.90;;;;;;4954012;28;20199;-77
2022/03/03 08:44:42;;;;;;;60.97;31.83;;;5.30;30.30;;;;;;4964775;28;20203;-80
2022/03/03 08:47:13;;;;;;;67.18;33.40;;;5.80;29.80;;;;;;4946758;28;20675;-79
2022/03/03 08:49:43;;;;;;;61.65;32.00;;;5.80;29.20;;;;;;4956525;28;20674;-78
2022/03/03 08:52:10;;;;;;;67.18;30.15;;;5.90;28.90;;;;;;4948672;28;20339;-79
2022/03/03 08:54:35;;;;;;;64.40;33.20;;;5.40;29.60;;;;;;4961888;28;20175;-77
2022/03/03 08:57:01;;;;;;;64.50;32.57;;;5.50;29.40;;;;;;4952233;28;20655;-78
2022/03/03 08:59:27;;;;;;;68.03;32.50;;;6.20;28.80;;;;;;4953151;28;20285;-78
2022/03/03 09:01:53;;;;;;;64.53;31.20;;;6.60;27.00;;;;;;4954042;28;20199;-78
2022/03/03 09:04:19;;;;;;;55.25;30.55;;;6.90;25.90;;;;;;4955219;28;20175;-78
2022/03/03 09:06:45;;;;;;;58.17;30.05;;;7.30;25.60;;;;;;4954442;28;20245;-78
2022/03/03 09:09:12;;;;;;;54.07;29.10;;;7.50;25.10;;;;;;4950505;28;20187;-78
2022/03/03 09:11:38;;;;;;;57.03;28.52;;;6.90;25.50;;;;;;4949274;28;20546;-78
2022/03/03 09:14:05;;;;;;;65.72;31.00;;;6.30;26.40;;;;;;4954232;28;20179;-78
2022/03/03 09:16:31;;;;;;;62.92;31.08;;;6.70;27.00;;;;;;4953502;28;20185;-79
2022/03/03 09:18:58;;;;;;;61.93;30.93;;;7.00;27.20;;;;;;4955369;28;20207;-78
2022/03/03 09:21:24;;;;;;;63.97;31.63;;;7.00;26.40;;;;;;4953673;28;20191;-78
2022/03/03 09:23:49;;;;;;;68.23;32.80;;;7.20;26.80;;;;;;4952966;28;20242;-78
2022/03/03 09:26:15;;;;;;;68.67;31.93;;;7.50;25.40;;;;;;4952633;28;20550;-78
2022/03/03 09:28:41;;;;;;;56.00;30.00;;;7.60;25.70;;;;;;4948935;28;20180;-78
2022/03/03 09:31:06;;;;;;;63.37;31.70;;;7.90;25.10;;;;;;4953527;28;20199;-78
2022/03/03 09:33:32;;;;;;;58.47;30.43;;;8.30;24.90;;;;;;4953277;28;20186;-78
2022/03/03 09:35:57;;;;;;;60.17;30.10;;;8.40;23.40;;;;;;4953686;28;20178;-78
2022/03/03 09:38:23;;;;;;;61.43;28.20;;;8.40;23.50;;;;;;4952471;28;20290;-77
2022/03/03 09:40:49;;;;;;;57.70;29.47;;;8.30;23.60;;;;;;4952078;28;20207;-77
2022/03/03 09:43:15;;;;;;;60.37;31.13;;;7.90;24.50;;;;;;4953779;28;20175;-77
2022/03/03 09:45:41;;;;;;;52.67;29.17;;;8.30;23.20;;;;;;4953355;28;20183;-77
2022/03/03 09:48:09;;;;;;;51.70;28.53;;;8.60;22.60;;;;;;4953485;29;20444;-77
2022/03/03 09:50:37;;;;;;;57.20;30.80;;;8.90;22.20;;;;;;4953095;28;20180;-77
2022/03/03 09:53:11;;;;;;;58.90;27.15;;;8.90;22.10;;;;;;4947596;29;20188;-77
2022/03/03 09:55:38;;;;;;;58.70;29.20;;;8.80;22.50;;;;;;4952076;28;20211;-76
2022/03/03 09:58:06;;;;;;;65.88;30.02;;;8.90;22.20;;;;;;4953056;28;20211;-77
2022/03/03 10:00:36;;;;;;;66.43;30.45;;;9.20;22.70;;;;;;4953448;28;20242;-77
2022/03/03 10:03:09;;;;;;;52.58;29.88;;;8.70;22.80;;;;;;4948096;28;20189;-77
2022/03/03 10:05:45;;;;;;;55.25;28.30;;;8.80;22.90;;;;;;4949059;28;20580;-78
2022/03/03 10:08:20;;;;;;;53.70;29.83;;;7.80;23.70;;;;;;4952863;28;20578;-78
2022/03/03 10:10:51;;;;;;;58.70;28.05;;;8.50;23.20;;;;;;4953569;28;20188;-78
2022/03/03 10:13:18;;;;;;;67.18;29.90;;;9.10;22.60;;;;;;4948309;29;20198;-78
2022/03/03 10:15:46;;;;;;;62.67;29.13;;;9.30;22.50;;;;;;4953009;28;20185;-78
2022/03/03 10:18:14;;;;;;;59.38;29.00;;;9.40;22.30;;;;;;4953013;28;20216;-78
2022/03/03 10:20:51;;;;;;;64.90;29.38;;;9.80;21.00;;;;;;4952815;28;20183;-78
2022/03/03 10:23:22;;;;;;;52.28;28.95;;;9.80;21.60;;;;;;4949137;28;20680;-78
2022/03/03 10:25:48;;;;;;;77.40;29.42;;;10.00;20.40;;;;;;4953322;29;20327;-79
2022/03/03 10:28:16;;;;;;;63.73;27.40;;;10.60;19.90;;;;;;4953424;28;20180;-79
2022/03/03 10:31:04;;;;;;;57.65;29.48;;;11.10;18.20;;;;;;4951929;28;20187;-78
2022/03/03 10:33:44;;;;;;;50.97;27.17;;;11.30;19.30;;;;;;4953023;28;20179;-78
2022/03/03 10:36:14;;;;;;;63.63;29.30;;;11.20;19.70;;;;;;4952233;28;20537;-79
2022/03/03 10:38:46;;;;;;;72.25;30.52;;;10.20;19.00;;;;;;4959470;28;20501;-78
2022/03/03 10:41:30;;;;;;;53.17;29.53;;;10.50;20.00;;;;;;4950942;28;20285;-78
2022/03/03 10:43:57;;;;;;;62.63;28.93;;;11.20;19.00;;;;;;4953005;28;20495;-78
2022/03/03 10:46:23;;;;;;;54.03;28.23;;;10.50;19.20;;;;;;4953115;28;20417;-78
2022/03/03 10:48:48;;;;;;;55.33;28.00;;;10.90;20.40;;;;;;4948918;28;20895;-78
2022/03/03 10:51:16;;;;;;;47.80;27.07;;;11.60;18.40;;;;;;4953270;28;20450;-78
2022/03/03 10:53:42;;;;;;;46.50;28.20;;;12.20;19.70;;;;;;4952562;28;20198;-77
2022/03/03 10:56:18;;;;;;;54.90;29.90;;;12.30;17.40;;;;;;4967816;28;20420;-76
2022/03/03 10:59:17;;;;;;;51.43;29.10;;;12.10;17.60;;;;;;4962195;28;20520;-76
2022/03/03 11:01:44;;;;;;;51.80;28.40;;;11.80;18.40;;;;;;4952410;28;20458;-76
2022/03/03 11:04:21;;;;;;;49.23;28.63;;;12.20;18.10;;;;;;4952775;28;20435;-77
2022/03/03 11:06:53;;;;;;;47.07;30.07;;;13.20;17.10;;;;;;4952368;28;20423;-77
2022/03/03 11:09:19;;;;;;;51.33;29.97;;;14.30;17.90;;;;;;4940590;29;20419;-76
2022/03/03 11:11:46;;;;;;;47.63;29.03;;;14.00;15.60;;;;;;4950838;28;20479;-76
2022/03/03 11:14:12;;;;;;;52.13;30.27;;;14.90;15.90;;;;;;4954011;28;20511;-76
2022/03/03 11:16:41;;;;;;;58.27;29.17;;;14.50;15.20;;;;;;4955774;28;20914;-76
2022/03/03 11:19:08;;;;;;;63.07;30.57;;;15.50;14.00;;;;;;4954813;28;20292;-78
2022/03/03 11:21:34;;;;;;;47.67;29.70;;;16.40;14.00;;;;;;4954923;28;20884;-77
2022/03/03 11:24:00;;;;;;;49.53;27.47;;;16.80;12.30;;;;;;4955583;28;20510;-78
2022/03/03 11:26:26;;;;;;;44.50;27.93;;;16.50;12.60;;;;;;4955243;28;20208;-78
2022/03/03 11:28:57;;;;;;;47.40;28.93;;;17.10;13.70;;;;;;4956020;28;20458;-77
2022/03/03 11:31:30;;;;;;;45.13;27.80;;;17.30;11.40;;;;;;4956499;28;20201;-78
2022/03/03 11:34:17;;;;;;;39.50;25.90;;;16.50;13.70;;;;;;4949887;29;20452;-78
2022/03/03 11:36:45;;;;;;;49.63;28.30;;;17.90;11.30;;;;;;4955559;28;20432;-78
2022/03/03 11:39:30;;;;;;;42.40;27.67;;;18.40;11.60;;;;;;4950986;29;20455;-77
2022/03/03 11:41:56;;;;;;;43.37;28.13;;;17.80;10.70;;;;;;4955482;28;20949;-78
2022/03/03 11:44:31;;;;;;;43.90;26.27;;;16.60;11.80;;;;;;4955935;28;20427;-76
2022/03/03 11:46:57;;;;;;;39.93;26.53;;;16.80;12.00;;;;;;4956533;28;20566;-77
2022/03/03 11:49:25;;;;;;;43.90;27.67;;;16.90;12.70;;;;;;4950027;28;20802;-77
2022/03/03 11:51:54;;;;;;;40.07;26.67;;;17.50;12.40;;;;;;4954572;28;20455;-78
2022/03/03 11:54:31;;;;;;;45.50;26.23;;;18.30;11.50;;;;;;4955393;28;20526;-78
2022/03/03 11:57:03;;;;;;;42.87;27.60;;;18.70;10.90;;;;;;4955008;28;20992;-78
2022/03/03 11:59:36;;;;;;;39.60;26.33;;;17.20;10.60;;;;;;4954009;28;20838;-77
2022/03/03 12:02:02;;;;;;;47.47;27.27;;;16.90;12.80;;;;;;4955280;28;20453;-78
2022/03/03 12:04:28;;;;;;;40.57;26.90;;;16.90;11.50;;;;;;4955187;28;20965;-78
2022/03/03 12:06:55;;;;;;;48.00;29.27;;;16.90;12.20;;;;;;4955302;28;20868;-77
2022/03/03 12:09:24;;;;;;;40.30;25.90;;;19.00;10.00;;;;;;4954968;28;20437;-78
2022/03/03 12:12:25;;;;;;;41.20;25.63;;;19.60;9.70;;;;;;4954958;28;20456;-78
2022/03/03 12:14:52;;;;;;;45.50;26.20;;;19.80;11.10;;;;;;4955194;28;20948;-78
2022/03/03 12:17:36;;;;;;;44.40;26.20;;;19.30;9.70;;;;;;4953878;28;20426;-78
2022/03/03 12:20:40;;;;;;;44.43;28.10;;;18.00;10.80;;;;;;4952641;28;20904;-78
2022/03/03 12:23:12;;;;;;;36.43;25.10;;;17.10;11.40;;;;;;4942549;28;20483;-79
2022/03/03 12:25:50;;;;;;;44.67;28.13;;;16.90;11.90;;;;;;4955465;28;20489;-78
2022/03/03 12:28:26;;;;;;;42.40;27.23;;;18.70;11.30;;;;;;4954770;28;20431;-78
2022/03/03 12:30:54;;;;;;;42.13;26.40;;;19.70;9.50;;;;;;4940642;28;20446;-79
2022/03/03 12:33:27;;;;;;;40.90;27.07;;;18.60;10.20;;;;;;4955908;28;20439;-78
2022/03/03 12:36:05;;;;;;;47.83;28.87;;;18.50;10.20;;;;;;4954793;28;20545;-78
2022/03/03 12:38:33;;;;;;;38.10;27.03;;;18.50;13.00;;;;;;4954930;28;20958;-78
2022/03/03 12:40:59;;;;;;;41.43;26.20;;;19.40;10.70;;;;;;4954862;28;20475;-79